sensor_id;sensor_type;location;lat;lon;timestamp;pressure;altitude;pressure_sealevel;temperature;humidity
17936;BME280;9093;52.062;4.508;2022-11-20T00:00:16;101737.22;;;0.97;74.67
17936;BME280;9093;52.062;4.508;2022-11-20T00:02:57;101745.13;;;0.93;74.73
17936;BME280;9093;52.062;4.508;2022-11-20T00:05:37;101740.72;;;0.89;74.60
17936;BME280;9093;52.062;4.508;2022-11-20T00:08:17;101738.09;;;0.84;74.89
17936;BME280;9093;52.062;4.508;2022-11-20T00:11:05;101745.97;;;0.82;74.91
17936;BME280;9093;52.062;4.508;2022-11-20T00:13:46;101749.50;;;0.78;74.98
17936;BME280;9093;52.062;4.508;2022-11-20T00:16:30;101747.75;;;0.74;74.77
17936;BME280;9093;52.062;4.508;2022-11-20T00:19:10;101742.47;;;0.71;75.02
17936;BME280;9093;52.062;4.508;2022-11-20T00:21:51;101745.97;;;0.72;74.72
17936;BME280;9093;52.062;4.508;2022-11-20T00:24:33;101743.34;;;0.72;74.67
17936;BME280;9093;52.062;4.508;2022-11-20T00:27:14;101735.47;;;0.70;74.70
17936;BME280;9093;52.062;4.508;2022-11-20T00:29:54;101730.19;;;0.70;74.92
17936;BME280;9093;52.062;4.508;2022-11-20T00:32:34;101739.00;;;0.69;74.58
17936;BME280;9093;52.062;4.508;2022-11-20T00:35:14;101735.47;;;0.69;74.87
17936;BME280;9093;52.062;4.508;2022-11-20T00:37:55;101731.97;;;0.68;74.83
17936;BME280;9093;52.062;4.508;2022-11-20T00:40:35;101729.34;;;0.67;74.66
17936;BME280;9093;52.062;4.508;2022-11-20T00:43:15;101730.19;;;0.64;74.43
17936;BME280;9093;52.062;4.508;2022-11-20T00:46:19;101724.94;;;0.64;74.66
17936;BME280;9093;52.062;4.508;2022-11-20T00:49:00;101723.19;;;0.63;74.54
17936;BME280;9093;52.062;4.508;2022-11-20T00:51:40;101717.06;;;0.61;74.53
17936;BME280;9093;52.062;4.508;2022-11-20T00:54:21;101723.19;;;0.60;74.43
17936;BME280;9093;52.062;4.508;2022-11-20T00:57:01;101719.69;;;0.58;74.83
17936;BME280;9093;52.062;4.508;2022-11-20T00:59:41;101726.69;;;0.59;74.70
17936;BME280;9093;52.062;4.508;2022-11-20T01:02:22;101722.34;;;0.57;74.46
17936;BME280;9093;52.062;4.508;2022-11-20T01:05:02;101716.19;;;0.53;74.59
17936;BME280;9093;52.062;4.508;2022-11-20T01:07:43;101717.03;;;0.51;74.81
17936;BME280;9093;52.062;4.508;2022-11-20T01:10:23;101720.56;;;0.48;74.57
17936;BME280;9093;52.062;4.508;2022-11-20T01:13:03;101724.94;;;0.43;74.46
17936;BME280;9093;52.062;4.508;2022-11-20T01:16:59;101714.41;;;0.40;74.67
17936;BME280;9093;52.062;4.508;2022-11-20T01:19:39;101723.19;;;0.42;74.73
17936;BME280;9093;52.062;4.508;2022-11-20T01:22:19;101710.91;;;0.41;74.51
17936;BME280;9093;52.062;4.508;2022-11-20T01:25:00;101716.16;;;0.35;74.70
17936;BME280;9093;52.062;4.508;2022-11-20T01:27:40;101712.66;;;0.30;74.58
17936;BME280;9093;52.062;4.508;2022-11-20T01:30:20;101710.88;;;0.26;74.74
17936;BME280;9093;52.062;4.508;2022-11-20T01:33:01;101705.63;;;0.23;74.65
17936;BME280;9093;52.062;4.508;2022-11-20T01:35:41;101715.25;;;0.22;74.44
17936;BME280;9093;52.062;4.508;2022-11-20T01:38:21;101715.25;;;0.21;74.58
17936;BME280;9093;52.062;4.508;2022-11-20T01:41:03;101713.47;;;0.20;74.74
17936;BME280;9093;52.062;4.508;2022-11-20T01:43:43;101708.22;;;0.15;74.50
17936;BME280;9093;52.062;4.508;2022-11-20T01:46:24;101701.22;;;0.13;74.57
17936;BME280;9093;52.062;4.508;2022-11-20T01:51:53;101707.34;;;0.12;74.65
17936;BME280;9093;52.062;4.508;2022-11-20T01:54:39;101700.34;;;0.11;74.84
17936;BME280;9093;52.062;4.508;2022-11-20T01:57:23;101709.09;;;0.13;74.69
17936;BME280;9093;52.062;4.508;2022-11-20T02:00:08;101695.97;;;0.10;74.63
17936;BME280;9093;52.062;4.508;2022-11-20T02:02:57;101698.59;;;0.08;74.44
17936;BME280;9093;52.062;4.508;2022-11-20T02:05:43;101711.72;;;0.04;74.52
17936;BME280;9093;52.062;4.508;2022-11-20T02:08:25;101712.56;;;0.03;74.57
17936;BME280;9093;52.062;4.508;2022-11-20T02:11:05;101714.34;;;0.04;74.48
17936;BME280;9093;52.062;4.508;2022-11-20T02:13:46;101716.97;;;0.05;74.74
17936;BME280;9093;52.062;4.508;2022-11-20T02:16:46;101715.19;;;0.07;74.45
17936;BME280;9093;52.062;4.508;2022-11-20T02:19:30;101705.56;;;0.08;74.74
17936;BME280;9093;52.062;4.508;2022-11-20T02:22:14;101709.97;;;0.04;74.40
17936;BME280;9093;52.062;4.508;2022-11-20T02:25:00;101709.06;;;0.00;74.36
17936;BME280;9093;52.062;4.508;2022-11-20T02:27:42;101702.06;;;-0.01;74.38
17936;BME280;9093;52.062;4.508;2022-11-20T02:30:22;101702.06;;;-0.01;74.40
17936;BME280;9093;52.062;4.508;2022-11-20T02:33:03;101702.06;;;-0.02;74.70
17936;BME280;9093;52.062;4.508;2022-11-20T02:35:46;101705.56;;;-0.02;74.45
17936;BME280;9093;52.062;4.508;2022-11-20T02:38:26;101695.03;;;-0.05;74.41
17936;BME280;9093;52.062;4.508;2022-11-20T02:41:06;101695.03;;;-0.05;74.54
17936;BME280;9093;52.062;4.508;2022-11-20T02:43:47;101688.03;;;-0.10;74.66
17936;BME280;9093;52.062;4.508;2022-11-20T02:46:27;101695.91;;;-0.10;74.71
17936;BME280;9093;52.062;4.508;2022-11-20T02:49:08;101680.16;;;-0.10;74.69
17936;BME280;9093;52.062;4.508;2022-11-20T02:51:48;101675.78;;;-0.13;74.46
17936;BME280;9093;52.062;4.508;2022-11-20T02:54:28;101677.50;;;-0.12;74.35
17936;BME280;9093;52.062;4.508;2022-11-20T02:57:08;101674.88;;;-0.16;74.56
17936;BME280;9093;52.062;4.508;2022-11-20T02:59:49;101663.50;;;-0.23;74.70
17936;BME280;9093;52.062;4.508;2022-11-20T03:02:30;101661.72;;;-0.24;74.78
17936;BME280;9093;52.062;4.508;2022-11-20T03:05:10;101665.25;;;-0.22;74.78
17936;BME280;9093;52.062;4.508;2022-11-20T03:07:51;101666.13;;;-0.23;74.52
17936;BME280;9093;52.062;4.508;2022-11-20T03:10:31;101657.38;;;-0.26;74.51
17936;BME280;9093;52.062;4.508;2022-11-20T03:13:11;101647.72;;;-0.29;74.72
17936;BME280;9093;52.062;4.508;2022-11-20T03:15:51;101642.47;;;-0.30;74.78
17936;BME280;9093;52.062;4.508;2022-11-20T03:18:32;101636.34;;;-0.29;74.80
17936;BME280;9093;52.062;4.508;2022-11-20T03:21:13;101637.22;;;-0.29;74.43
17936;BME280;9093;52.062;4.508;2022-11-20T03:23:54;101646.00;;;-0.27;74.64
17936;BME280;9093;52.062;4.508;2022-11-20T03:26:35;101647.75;;;-0.26;74.85
17936;BME280;9093;52.062;4.508;2022-11-20T03:29:15;101644.25;;;-0.28;74.54
17936;BME280;9093;52.062;4.508;2022-11-20T03:31:55;101648.63;;;-0.25;74.52
17936;BME280;9093;52.062;4.508;2022-11-20T03:34:35;101637.25;;;-0.26;74.47
17936;BME280;9093;52.062;4.508;2022-11-20T03:37:16;101632.00;;;-0.26;74.55
17936;BME280;9093;52.062;4.508;2022-11-20T03:39:56;101626.75;;;-0.26;74.46
17936;BME280;9093;52.062;4.508;2022-11-20T03:42:36;101626.75;;;-0.26;74.46
17936;BME280;9093;52.062;4.508;2022-11-20T03:45:26;101613.59;;;-0.30;74.58
17936;BME280;9093;52.062;4.508;2022-11-20T03:48:06;101617.13;;;-0.33;74.50
17936;BME280;9093;52.062;4.508;2022-11-20T03:50:47;101615.34;;;-0.31;74.61
17936;BME280;9093;52.062;4.508;2022-11-20T03:53:27;101621.50;;;-0.32;74.39
17936;BME280;9093;52.062;4.508;2022-11-20T03:56:08;101627.59;;;-0.31;74.40
17936;BME280;9093;52.062;4.508;2022-11-20T03:58:49;101612.72;;;-0.31;74.68
17936;BME280;9093;52.062;4.508;2022-11-20T04:01:35;101612.72;;;-0.31;74.69
17936;BME280;9093;52.062;4.508;2022-11-20T04:04:17;101617.13;;;-0.33;74.55
17936;BME280;9093;52.062;4.508;2022-11-20T04:06:57;101603.13;;;-0.38;74.59
17936;BME280;9093;52.062;4.508;2022-11-20T04:09:37;101590.84;;;-0.36;74.28
17936;BME280;9093;52.062;4.508;2022-11-20T04:12:18;101578.63;;;-0.34;74.39
17936;BME280;9093;52.062;4.508;2022-11-20T04:14:58;101585.63;;;-0.33;74.39
17936;BME280;9093;52.062;4.508;2022-11-20T04:17:38;101579.50;;;-0.35;74.59
17936;BME280;9093;52.062;4.508;2022-11-20T04:20:18;101572.50;;;-0.33;74.72
17936;BME280;9093;52.062;4.508;2022-11-20T04:22:59;101562.88;;;-0.32;74.41
17936;BME280;9093;52.062;4.508;2022-11-20T04:25:39;101579.50;;;-0.35;74.40
17936;BME280;9093;52.062;4.508;2022-11-20T04:28:20;101576.88;;;-0.35;74.28
17936;BME280;9093;52.062;4.508;2022-11-20T04:33:47;101580.38;;;-0.33;74.29
17936;BME280;9093;52.062;4.508;2022-11-20T04:36:28;101584.75;;;-0.35;74.54
17936;BME280;9093;52.062;4.508;2022-11-20T04:39:12;101580.38;;;-0.34;74.48
17936;BME280;9093;52.062;4.508;2022-11-20T04:41:53;101579.50;;;-0.35;74.39
17936;BME280;9093;52.062;4.508;2022-11-20T04:44:53;101590.00;;;-0.35;74.70
17936;BME280;9093;52.062;4.508;2022-11-20T04:47:33;101584.75;;;-0.38;74.64
17936;BME280;9093;52.062;4.508;2022-11-20T04:50:14;101579.50;;;-0.35;74.58
17936;BME280;9093;52.062;4.508;2022-11-20T04:52:54;101579.50;;;-0.35;74.32
17936;BME280;9093;52.062;4.508;2022-11-20T04:55:34;101577.75;;;-0.33;74.68
17936;BME280;9093;52.062;4.508;2022-11-20T04:58:16;101577.75;;;-0.33;74.33
17936;BME280;9093;52.062;4.508;2022-11-20T05:01:07;101569.03;;;-0.32;74.36
17936;BME280;9093;52.062;4.508;2022-11-20T05:03:49;101565.50;;;-0.31;74.37
17936;BME280;9093;52.062;4.508;2022-11-20T05:06:30;101573.38;;;-0.31;74.28
17936;BME280;9093;52.062;4.508;2022-11-20T05:09:11;101576.00;;;-0.31;74.54
17936;BME280;9093;52.062;4.508;2022-11-20T05:11:51;101576.00;;;-0.31;74.52
17936;BME280;9093;52.062;4.508;2022-11-20T05:14:31;101583.88;;;-0.31;74.31
17936;BME280;9093;52.062;4.508;2022-11-20T05:17:12;101582.13;;;-0.32;74.46
17936;BME280;9093;52.062;4.508;2022-11-20T05:19:52;101589.09;;;-0.31;74.45
17936;BME280;9093;52.062;4.508;2022-11-20T05:22:32;101584.75;;;-0.32;74.46
17936;BME280;9093;52.062;4.508;2022-11-20T05:25:13;101598.75;;;-0.30;74.53
17936;BME280;9093;52.062;4.508;2022-11-20T05:27:53;101593.50;;;-0.30;74.53
17936;BME280;9093;52.062;4.508;2022-11-20T05:30:33;101586.47;;;-0.31;74.28
17936;BME280;9093;52.062;4.508;2022-11-20T05:33:14;101577.75;;;-0.30;74.41
17936;BME280;9093;52.062;4.508;2022-11-20T05:35:58;101575.13;;;-0.30;74.61
17936;BME280;9093;52.062;4.508;2022-11-20T05:38:39;101568.13;;;-0.31;74.51
17936;BME280;9093;52.062;4.508;2022-11-20T05:41:20;101556.78;;;-0.33;74.66
17936;BME280;9093;52.062;4.508;2022-11-20T05:44:00;101556.75;;;-0.30;74.43
17936;BME280;9093;52.062;4.508;2022-11-20T05:46:40;101551.50;;;-0.30;74.61
17936;BME280;9093;52.062;4.508;2022-11-20T05:49:21;101555.88;;;-0.29;74.41
17936;BME280;9093;52.062;4.508;2022-11-20T05:52:01;101560.25;;;-0.28;74.48
17936;BME280;9093;52.062;4.508;2022-11-20T05:54:41;101558.53;;;-0.27;74.32
17936;BME280;9093;52.062;4.508;2022-11-20T05:57:21;101564.66;;;-0.27;74.65
17936;BME280;9093;52.062;4.508;2022-11-20T06:00:03;101550.66;;;-0.27;74.64
17936;BME280;9093;52.062;4.508;2022-11-20T06:02:43;101539.28;;;-0.28;74.64
17936;BME280;9093;52.062;4.508;2022-11-20T06:05:24;101543.66;;;-0.25;74.46
17936;BME280;9093;52.062;4.508;2022-11-20T06:08:04;101536.63;;;-0.25;74.51
17936;BME280;9093;52.062;4.508;2022-11-20T06:10:44;101539.25;;;-0.25;74.67
17936;BME280;9093;52.062;4.508;2022-11-20T06:13:24;101529.66;;;-0.24;74.58
17936;BME280;9093;52.062;4.508;2022-11-20T06:16:05;101532.28;;;-0.24;74.63
17936;BME280;9093;52.062;4.508;2022-11-20T06:18:46;101529.66;;;-0.23;74.31
17936;BME280;9093;52.062;4.508;2022-11-20T06:21:26;101525.28;;;-0.24;74.79
17936;BME280;9093;52.062;4.508;2022-11-20T06:24:09;101522.66;;;-0.24;74.66
17936;BME280;9093;52.062;4.508;2022-11-20T06:26:49;101525.28;;;-0.24;74.49
17936;BME280;9093;52.062;4.508;2022-11-20T06:29:30;101526.16;;;-0.23;74.46
17936;BME280;9093;52.062;4.508;2022-11-20T06:32:10;101520.03;;;-0.24;74.51
17936;BME280;9093;52.062;4.508;2022-11-20T06:34:50;101520.03;;;-0.21;74.40
17936;BME280;9093;52.062;4.508;2022-11-20T06:37:31;101523.53;;;-0.19;74.56
17936;BME280;9093;52.062;4.508;2022-11-20T06:40:11;101513.91;;;-0.17;74.51
17936;BME280;9093;52.062;4.508;2022-11-20T06:42:53;101516.53;;;-0.15;74.53
17936;BME280;9093;52.062;4.508;2022-11-20T06:45:34;101503.44;;;-0.14;74.60
17936;BME280;9093;52.062;4.508;2022-11-20T06:48:14;101508.66;;;-0.12;74.55
17936;BME280;9093;52.062;4.508;2022-11-20T06:50:54;101507.78;;;-0.10;74.66
17936;BME280;9093;52.062;4.508;2022-11-20T06:53:35;101506.06;;;-0.08;74.76
17936;BME280;9093;52.062;4.508;2022-11-20T06:56:16;101505.16;;;-0.05;74.61
17936;BME280;9093;52.062;4.508;2022-11-20T06:58:56;101501.69;;;-0.03;74.84
17936;BME280;9093;52.062;4.508;2022-11-20T07:01:36;101493.78;;;0.00;74.75
17936;BME280;9093;52.062;4.508;2022-11-20T07:04:17;101488.53;;;0.04;74.68
17936;BME280;9093;52.062;4.508;2022-11-20T07:06:57;101498.16;;;0.08;74.66
17936;BME280;9093;52.062;4.508;2022-11-20T07:09:37;101502.56;;;0.12;75.01
17936;BME280;9093;52.062;4.508;2022-11-20T07:12:18;101505.16;;;0.16;74.83
17936;BME280;9093;52.062;4.508;2022-11-20T07:14:58;101505.16;;;0.19;74.95
17936;BME280;9093;52.062;4.508;2022-11-20T07:17:38;101507.78;;;0.24;74.81
17936;BME280;9093;52.062;4.508;2022-11-20T07:20:18;101498.16;;;0.27;75.06
17936;BME280;9093;52.062;4.508;2022-11-20T07:22:59;101504.28;;;0.31;74.94
17936;BME280;9093;52.062;4.508;2022-11-20T07:25:39;101499.91;;;0.36;74.85
17936;BME280;9093;52.062;4.508;2022-11-20T07:28:19;101507.75;;;0.39;74.79
17936;BME280;9093;52.062;4.508;2022-11-20T07:31:00;101495.50;;;0.41;75.10
17936;BME280;9093;52.062;4.508;2022-11-20T07:33:40;101497.22;;;0.45;74.80
17936;BME280;9093;52.062;4.508;2022-11-20T07:36:20;101494.63;;;0.50;75.10
17936;BME280;9093;52.062;4.508;2022-11-20T07:39:01;101493.72;;;0.52;74.85
17936;BME280;9093;52.062;4.508;2022-11-20T07:41:41;101491.97;;;0.53;74.80
17936;BME280;9093;52.062;4.508;2022-11-20T07:44:21;101497.22;;;0.54;74.97
17936;BME280;9093;52.062;4.508;2022-11-20T07:47:01;101494.56;;;0.59;75.18
17936;BME280;9093;52.062;4.508;2022-11-20T07:49:42;101495.44;;;0.65;74.87
17936;BME280;9093;52.062;4.508;2022-11-20T07:52:22;101496.31;;;0.69;74.85
17936;BME280;9093;52.062;4.508;2022-11-20T07:55:03;101496.31;;;0.75;75.32
17936;BME280;9093;52.062;4.508;2022-11-20T07:57:43;101506.78;;;0.79;75.20
17936;BME280;9093;52.062;4.508;2022-11-20T08:00:24;101501.50;;;0.82;75.25
17936;BME280;9093;52.062;4.508;2022-11-20T08:03:05;101505.91;;;0.88;75.12
17936;BME280;9093;52.062;4.508;2022-11-20T08:05:45;101505.88;;;0.91;75.33
17936;BME280;9093;52.062;4.508;2022-11-20T08:08:26;101508.47;;;0.96;74.97
17936;BME280;9093;52.062;4.508;2022-11-20T08:11:06;101504.94;;;1.01;75.02
17936;BME280;9093;52.062;4.508;2022-11-20T08:14:05;101493.53;;;1.05;75.22
17936;BME280;9093;52.062;4.508;2022-11-20T08:16:51;101495.28;;;1.11;75.00
17936;BME280;9093;52.062;4.508;2022-11-20T08:19:32;101486.47;;;1.15;75.42
17936;BME280;9093;52.062;4.508;2022-11-20T08:22:12;101482.97;;;1.19;75.39
17936;BME280;9093;52.062;4.508;2022-11-20T08:24:53;101482.06;;;1.23;75.14
17936;BME280;9093;52.062;4.508;2022-11-20T08:27:33;101472.38;;;1.28;75.52
17936;BME280;9093;52.062;4.508;2022-11-20T08:30:13;101476.75;;;1.32;75.15
17936;BME280;9093;52.062;4.508;2022-11-20T08:32:54;101473.25;;;1.32;75.16
17936;BME280;9093;52.062;4.508;2022-11-20T08:35:36;101488.97;;;1.39;75.31
17936;BME280;9093;52.062;4.508;2022-11-20T08:38:16;101477.56;;;1.40;75.59
17936;BME280;9093;52.062;4.508;2022-11-20T08:40:58;101475.81;;;1.45;75.38
17936;BME280;9093;52.062;4.508;2022-11-20T08:43:59;101465.22;;;1.50;75.59
17936;BME280;9093;52.062;4.508;2022-11-20T08:46:41;101478.34;;;1.56;75.35
17936;BME280;9093;52.062;4.508;2022-11-20T08:49:21;101476.59;;;1.58;75.50
17936;BME280;9093;52.062;4.508;2022-11-20T08:52:02;101472.16;;;1.61;75.25
17936;BME280;9093;52.062;4.508;2022-11-20T08:54:42;101470.38;;;1.67;75.37
17936;BME280;9093;52.062;4.508;2022-11-20T08:57:22;101471.19;;;1.72;75.69
17936;BME280;9093;52.062;4.508;2022-11-20T09:00:05;101471.19;;;1.76;75.15
17936;BME280;9093;52.062;4.508;2022-11-20T09:02:45;101465.00;;;1.79;75.46
17936;BME280;9093;52.062;4.508;2022-11-20T09:05:26;101470.22;;;1.85;75.41
17936;BME280;9093;52.062;4.508;2022-11-20T09:08:07;101468.47;;;1.87;75.32
17936;BME280;9093;52.062;4.508;2022-11-20T09:10:51;101463.16;;;1.90;75.80
17936;BME280;9093;52.062;4.508;2022-11-20T09:13:33;101461.38;;;1.92;75.71
17936;BME280;9093;52.062;4.508;2022-11-20T09:16:14;101452.59;;;1.96;75.56
17936;BME280;9093;52.062;4.508;2022-11-20T09:18:54;101445.53;;;2.01;75.58
17936;BME280;9093;52.062;4.508;2022-11-20T09:21:34;101436.69;;;2.05;75.88
17936;BME280;9093;52.062;4.508;2022-11-20T09:24:15;101430.53;;;2.08;75.92
17936;BME280;9093;52.062;4.508;2022-11-20T09:26:55;101427.84;;;2.12;75.86
17936;BME280;9093;52.062;4.508;2022-11-20T09:29:35;101431.28;;;2.20;75.64
17936;BME280;9093;52.062;4.508;2022-11-20T09:32:15;101423.31;;;2.25;75.65
17936;BME280;9093;52.062;4.508;2022-11-20T09:34:56;101426.78;;;2.31;75.87
17936;BME280;9093;52.062;4.508;2022-11-20T09:37:36;101414.41;;;2.38;75.87
17936;BME280;9093;52.062;4.508;2022-11-20T09:43:20;101401.97;;;2.49;75.51
17936;BME280;9093;52.062;4.508;2022-11-20T09:46:12;101404.53;;;2.54;75.57
17936;BME280;9093;52.062;4.508;2022-11-20T09:49:12;101395.72;;;2.58;75.92
17936;BME280;9093;52.062;4.508;2022-11-20T09:52:31;101394.84;;;2.59;76.08
17936;BME280;9093;52.062;4.508;2022-11-20T09:55:14;101393.00;;;2.65;76.00
17936;BME280;9093;52.062;4.508;2022-11-20T09:57:55;101390.28;;;2.70;76.16
17936;BME280;9093;52.062;4.508;2022-11-20T10:00:36;101388.47;;;2.75;76.22
17936;BME280;9093;52.062;4.508;2022-11-20T10:03:24;101373.50;;;2.77;76.16
17936;BME280;9093;52.062;4.508;2022-11-20T10:06:13;101362.00;;;2.81;76.15
17936;BME280;9093;52.062;4.508;2022-11-20T10:09:18;101361.13;;;2.83;76.09
17936;BME280;9093;52.062;4.508;2022-11-20T10:14:59;101348.66;;;2.92;76.40
17936;BME280;9093;52.062;4.508;2022-11-20T10:17:54;101333.69;;;2.95;76.35
17936;BME280;9093;52.062;4.508;2022-11-20T10:20:56;101332.72;;;3.01;76.23
17936;BME280;9093;52.062;4.508;2022-11-20T10:24:14;101325.69;;;3.01;76.48
17936;BME280;9093;52.062;4.508;2022-11-20T10:30:02;101303.63;;;3.05;76.51
17936;BME280;9093;52.062;4.508;2022-11-20T10:32:52;101301.84;;;3.07;76.51
17936;BME280;9093;52.062;4.508;2022-11-20T10:35:36;101297.34;;;3.14;76.72
17936;BME280;9093;52.062;4.508;2022-11-20T10:38:21;101282.31;;;3.17;76.62
17936;BME280;9093;52.062;4.508;2022-11-20T10:41:05;101277.00;;;3.20;76.49
17936;BME280;9093;52.062;4.508;2022-11-20T10:44:11;101274.38;;;3.20;76.57
17936;BME280;9093;52.062;4.508;2022-11-20T10:46:52;101276.94;;;3.23;76.81
17936;BME280;9093;52.062;4.508;2022-11-20T10:49:33;101263.72;;;3.27;76.79
17936;BME280;9093;52.062;4.508;2022-11-20T10:52:47;101265.47;;;3.28;76.85
17936;BME280;9093;52.062;4.508;2022-11-20T10:55:47;101266.25;;;3.33;76.80
17936;BME280;9093;52.062;4.508;2022-11-20T10:58:45;101263.53;;;3.36;76.75
17936;BME280;9093;52.062;4.508;2022-11-20T11:01:29;101260.84;;;3.39;76.41
17936;BME280;9093;52.062;4.508;2022-11-20T11:07:19;101246.69;;;3.43;76.73
17936;BME280;9093;52.062;4.508;2022-11-20T11:10:00;101235.16;;;3.48;76.56
17936;BME280;9093;52.062;4.508;2022-11-20T11:12:44;101225.41;;;3.52;76.84
17936;BME280;9093;52.062;4.508;2022-11-20T11:15:29;101220.94;;;3.55;76.64
17936;BME280;9093;52.062;4.508;2022-11-20T11:18:10;101220.88;;;3.60;76.85
17936;BME280;9093;52.062;4.508;2022-11-20T11:20:52;101212.88;;;3.63;76.96
17936;BME280;9093;52.062;4.508;2022-11-20T11:23:35;101211.00;;;3.68;76.89
17936;BME280;9093;52.062;4.508;2022-11-20T11:26:22;101201.19;;;3.75;76.68
17936;BME280;9093;52.062;4.508;2022-11-20T11:29:04;101188.81;;;3.78;76.79
17936;BME280;9093;52.062;4.508;2022-11-20T11:31:44;101178.16;;;3.83;76.80
17936;BME280;9093;52.062;4.508;2022-11-20T11:34:24;101170.13;;;3.87;76.79
17936;BME280;9093;52.062;4.508;2022-11-20T11:37:12;101168.31;;;3.89;76.76
17936;BME280;9093;52.062;4.508;2022-11-20T11:39:55;101153.25;;;3.93;76.94
17936;BME280;9093;52.062;4.508;2022-11-20T11:42:35;101137.34;;;3.97;76.95
17936;BME280;9093;52.062;4.508;2022-11-20T11:45:21;101127.66;;;3.96;77.11
17936;BME280;9093;52.062;4.508;2022-11-20T11:48:03;101126.72;;;3.99;77.12
17936;BME280;9093;52.062;4.508;2022-11-20T11:50:50;101109.09;;;3.99;77.09
17936;BME280;9093;52.062;4.508;2022-11-20T11:53:31;101100.25;;;4.02;77.00
17936;BME280;9093;52.062;4.508;2022-11-20T11:56:13;101093.06;;;4.07;76.95
17936;BME280;9093;52.062;4.508;2022-11-20T11:58:57;101097.44;;;4.10;77.21
17936;BME280;9093;52.062;4.508;2022-11-20T12:01:44;101093.03;;;4.09;77.43
17936;BME280;9093;52.062;4.508;2022-11-20T12:04:43;101102.78;;;4.07;77.47
17936;BME280;9093;52.062;4.508;2022-11-20T12:07:43;101096.47;;;4.12;77.25
17936;BME280;9093;52.062;4.508;2022-11-20T12:10:39;101101.69;;;4.15;77.29
17936;BME280;9093;52.062;4.508;2022-11-20T12:16:14;101092.91;;;4.15;77.20
17936;BME280;9093;52.062;4.508;2022-11-20T12:18:57;101085.03;;;4.12;77.38
17936;BME280;9093;52.062;4.508;2022-11-20T12:25:07;101083.31;;;4.11;77.48
17936;BME280;9093;52.062;4.508;2022-11-20T12:31:21;101081.56;;;4.10;77.59
17936;BME280;9093;52.062;4.508;2022-11-20T12:37:48;101058.53;;;4.15;77.58
17936;BME280;9093;52.062;4.508;2022-11-20T12:40:58;101051.47;;;4.17;77.51
17936;BME280;9093;52.062;4.508;2022-11-20T12:44:04;101053.22;;;4.16;77.65
17936;BME280;9093;52.062;4.508;2022-11-20T12:59:25;101018.06;;;4.13;77.75
17936;BME280;9093;52.062;4.508;2022-11-20T13:02:33;101011.84;;;4.15;78.03
17936;BME280;9093;52.062;4.508;2022-11-20T13:05:31;101002.06;;;4.19;77.87
17936;BME280;9093;52.062;4.508;2022-11-20T13:08:29;100994.09;;;4.20;78.10
17936;BME280;9093;52.062;4.508;2022-11-20T13:11:18;100991.44;;;4.22;77.96
17936;BME280;9093;52.062;4.508;2022-11-20T13:14:04;100992.25;;;4.24;78.03
17936;BME280;9093;52.062;4.508;2022-11-20T13:16:57;100984.25;;;4.27;78.24
17936;BME280;9093;52.062;4.508;2022-11-20T13:19:39;100984.19;;;4.30;78.31
17936;BME280;9093;52.062;4.508;2022-11-20T13:22:42;100977.16;;;4.29;78.26
17936;BME280;9093;52.062;4.508;2022-11-20T13:25:31;100981.47;;;4.31;78.26
17936;BME280;9093;52.062;4.508;2022-11-20T13:30:53;100972.75;;;4.29;78.34
17936;BME280;9093;52.062;4.508;2022-11-20T13:33:36;100970.91;;;4.31;78.43
17936;BME280;9093;52.062;4.508;2022-11-20T13:36:25;100971.81;;;4.30;78.17
17936;BME280;9093;52.062;4.508;2022-11-20T13:39:08;100965.63;;;4.31;78.44
17936;BME280;9093;52.062;4.508;2022-11-20T13:41:55;100962.16;;;4.29;78.22
17936;BME280;9093;52.062;4.508;2022-11-20T13:44:42;100946.31;;;4.29;78.16
17936;BME280;9093;52.062;4.508;2022-11-20T13:47:26;100938.41;;;4.28;78.32
17936;BME280;9093;52.062;4.508;2022-11-20T13:50:08;100943.69;;;4.28;78.66
17936;BME280;9093;52.062;4.508;2022-11-20T13:56:05;100932.22;;;4.29;78.53
17936;BME280;9093;52.062;4.508;2022-11-20T14:01:45;100932.22;;;4.29;78.78
17936;BME280;9093;52.062;4.508;2022-11-20T14:04:29;100913.66;;;4.30;78.65
17936;BME280;9093;52.062;4.508;2022-11-20T14:07:10;100903.16;;;4.29;78.63
17936;BME280;9093;52.062;4.508;2022-11-20T14:09:55;100879.25;;;4.32;78.87
17936;BME280;9093;52.062;4.508;2022-11-20T14:12:36;100871.34;;;4.32;78.57
17936;BME280;9093;52.062;4.508;2022-11-20T14:15:31;100862.59;;;4.30;78.73
17936;BME280;9093;52.062;4.508;2022-11-20T14:18:20;100845.78;;;4.32;78.87
17936;BME280;9093;52.062;4.508;2022-11-20T14:21:01;100839.59;;;4.33;78.91
17936;BME280;9093;52.062;4.508;2022-11-20T14:23:43;100834.25;;;4.35;78.78
17936;BME280;9093;52.062;4.508;2022-11-20T14:26:24;100841.28;;;4.36;79.07
17936;BME280;9093;52.062;4.508;2022-11-20T14:29:04;100841.28;;;4.36;78.81
17936;BME280;9093;52.062;4.508;2022-11-20T14:31:46;100834.16;;;4.38;78.74
17936;BME280;9093;52.062;4.508;2022-11-20T14:34:27;100824.59;;;4.34;79.05
17936;BME280;9093;52.062;4.508;2022-11-20T14:37:16;100820.94;;;4.38;78.84
17936;BME280;9093;52.062;4.508;2022-11-20T14:39:57;100820.94;;;4.38;79.13
17936;BME280;9093;52.062;4.508;2022-11-20T14:42:43;100822.66;;;4.40;79.28
17936;BME280;9093;52.062;4.508;2022-11-20T14:45:25;100811.19;;;4.40;79.19
17936;BME280;9093;52.062;4.508;2022-11-20T14:48:05;100800.63;;;4.40;78.97
17936;BME280;9093;52.062;4.508;2022-11-20T14:50:46;100798.84;;;4.40;79.13
17936;BME280;9093;52.062;4.508;2022-11-20T14:53:26;100795.34;;;4.40;79.41
17936;BME280;9093;52.062;4.508;2022-11-20T14:56:08;100781.28;;;4.38;79.33
17936;BME280;9093;52.062;4.508;2022-11-20T14:58:56;100774.28;;;4.37;79.12
17936;BME280;9093;52.062;4.508;2022-11-20T15:01:36;100770.69;;;4.39;79.16
17936;BME280;9093;52.062;4.508;2022-11-20T15:04:17;100763.63;;;4.40;79.46
17936;BME280;9093;52.062;4.508;2022-11-20T15:06:59;100750.41;;;4.40;79.12
17936;BME280;9093;52.062;4.508;2022-11-20T15:09:39;100752.19;;;4.39;79.30
17936;BME280;9093;52.062;4.508;2022-11-20T15:12:19;100745.13;;;4.40;79.62
17936;BME280;9093;52.062;4.508;2022-11-20T15:15:00;100738.94;;;4.41;79.45
17936;BME280;9093;52.062;4.508;2022-11-20T15:17:41;100739.69;;;4.44;79.60
17936;BME280;9093;52.062;4.508;2022-11-20T15:20:25;100740.56;;;4.45;79.34
17936;BME280;9093;52.062;4.508;2022-11-20T15:23:10;100731.75;;;4.44;79.46
17936;BME280;9093;52.062;4.508;2022-11-20T15:25:51;100733.50;;;4.45;79.46